sensor_id;sensor_type;location;lat;lon;timestamp;P1;durP1;ratioP1;P2;durP2;ratioP2
60873;SDS011;46715;40.642;-7.920;2024-01-27T00:01:50;9.00;;;6.47;;
60873;SDS011;46715;40.642;-7.920;2024-01-27T00:03:51;8.07;;;6.07;;
60873;SDS011;46715;40.642;-7.920;2024-01-27T00:05:54;9.63;;;6.07;;
60873;SDS011;46715;40.642;-7.920;2024-01-27T00:07:55;10.57;;;5.80;;
60873;SDS011;46715;40.642;-7.920;2024-01-27T00:09:55;7.33;;;5.73;;
60873;SDS011;46715;40.642;-7.920;2024-01-27T00:11:56;8.17;;;5.87;;
60873;SDS011;46715;40.642;-7.920;2024-01-27T00:13:57;8.40;;;5.87;;
60873;SDS011;46715;40.642;-7.920;2024-01-27T00:15:59;8.50;;;5.95;;
60873;SDS011;46715;40.642;-7.920;2024-01-27T00:18:00;6.53;;;4.77;;
60873;SDS011;46715;40.642;-7.920;2024-01-27T00:20:00;7.67;;;5.20;;
60873;SDS011;46715;40.642;-7.920;2024-01-27T00:22:01;8.07;;;5.20;;
60873;SDS011;46715;40.642;-7.920;2024-01-27T00:24:02;6.90;;;5.35;;
60873;SDS011;46715;40.642;-7.920;2024-01-27T00:26:04;8.20;;;5.30;;
60873;SDS011;46715;40.642;-7.920;2024-01-27T00:28:05;8.48;;;5.35;;
60873;SDS011;46715;40.642;-7.920;2024-01-27T00:30:06;9.40;;;6.00;;
60873;SDS011;46715;40.642;-7.920;2024-01-27T00:32:10;6.75;;;5.60;;
60873;SDS011;46715;40.642;-7.920;2024-01-27T00:34:11;8.10;;;5.53;;
60873;SDS011;46715;40.642;-7.920;2024-01-27T00:36:12;6.15;;;4.90;;
60873;SDS011;46715;40.642;-7.920;2024-01-27T00:38:13;7.80;;;5.13;;
60873;SDS011;46715;40.642;-7.920;2024-01-27T00:40:14;6.30;;;4.70;;
60873;SDS011;46715;40.642;-7.920;2024-01-27T00:42:14;5.73;;;4.30;;
60873;SDS011;46715;40.642;-7.920;2024-01-27T00:44:16;6.15;;;4.32;;
60873;SDS011;46715;40.642;-7.920;2024-01-27T00:46:17;5.27;;;4.27;;
60873;SDS011;46715;40.642;-7.920;2024-01-27T00:48:18;7.60;;;4.60;;
60873;SDS011;46715;40.642;-7.920;2024-01-27T00:50:19;7.72;;;5.30;;
60873;SDS011;46715;40.642;-7.920;2024-01-27T00:52:20;7.13;;;4.77;;
60873;SDS011;46715;40.642;-7.920;2024-01-27T00:54:21;7.37;;;4.73;;
60873;SDS011;46715;40.642;-7.920;2024-01-27T00:56:22;7.97;;;4.70;;
60873;SDS011;46715;40.642;-7.920;2024-01-27T00:58:22;7.40;;;5.30;;
60873;SDS011;46715;40.642;-7.920;2024-01-27T01:00:23;8.47;;;4.57;;
60873;SDS011;46715;40.642;-7.920;2024-01-27T01:02:24;6.23;;;4.63;;
60873;SDS011;46715;40.642;-7.920;2024-01-27T01:04:24;5.90;;;4.07;;
60873;SDS011;46715;40.642;-7.920;2024-01-27T01:06:25;5.00;;;3.80;;
60873;SDS011;46715;40.642;-7.920;2024-01-27T01:08:26;5.93;;;4.07;;
60873;SDS011;46715;40.642;-7.920;2024-01-27T01:10:27;6.07;;;3.97;;
60873;SDS011;46715;40.642;-7.920;2024-01-27T01:12:28;5.43;;;3.37;;
60873;SDS011;46715;40.642;-7.920;2024-01-27T01:14:29;6.57;;;3.07;;
60873;SDS011;46715;40.642;-7.920;2024-01-27T01:16:29;4.23;;;3.33;;
60873;SDS011;46715;40.642;-7.920;2024-01-27T01:18:30;5.17;;;3.30;;
60873;SDS011;46715;40.642;-7.920;2024-01-27T01:20:31;6.17;;;3.13;;
60873;SDS011;46715;40.642;-7.920;2024-01-27T01:22:32;5.28;;;3.05;;
60873;SDS011;46715;40.642;-7.920;2024-01-27T01:24:33;4.13;;;3.23;;
60873;SDS011;46715;40.642;-7.920;2024-01-27T01:26:37;6.13;;;3.23;;
60873;SDS011;46715;40.642;-7.920;2024-01-27T01:28:38;7.05;;;3.10;;
60873;SDS011;46715;40.642;-7.920;2024-01-27T01:30:39;4.30;;;3.10;;
60873;SDS011;46715;40.642;-7.920;2024-01-27T01:32:40;4.33;;;3.03;;
60873;SDS011;46715;40.642;-7.920;2024-01-27T01:34:41;3.20;;;2.47;;
60873;SDS011;46715;40.642;-7.920;2024-01-27T01:36:42;4.20;;;2.95;;
60873;SDS011;46715;40.642;-7.920;2024-01-27T01:38:43;3.75;;;2.63;;
60873;SDS011;46715;40.642;-7.920;2024-01-27T01:40:44;4.33;;;2.67;;
60873;SDS011;46715;40.642;-7.920;2024-01-27T01:42:49;4.77;;;2.30;;
60873;SDS011;46715;40.642;-7.920;2024-01-27T01:44:51;4.65;;;2.97;;
60873;SDS011;46715;40.642;-7.920;2024-01-27T01:46:52;4.45;;;2.60;;
60873;SDS011;46715;40.642;-7.920;2024-01-27T01:48:57;3.90;;;2.40;;
60873;SDS011;46715;40.642;-7.920;2024-01-27T01:50:58;3.97;;;2.67;;
60873;SDS011;46715;40.642;-7.920;2024-01-27T01:53:00;4.32;;;2.13;;
60873;SDS011;46715;40.642;-7.920;2024-01-27T01:55:01;4.22;;;2.88;;
60873;SDS011;46715;40.642;-7.920;2024-01-27T01:57:02;2.37;;;2.07;;
60873;SDS011;46715;40.642;-7.920;2024-01-27T01:59:04;3.88;;;2.65;;
60873;SDS011;46715;40.642;-7.920;2024-01-27T02:01:05;4.07;;;2.40;;
60873;SDS011;46715;40.642;-7.920;2024-01-27T02:03:09;2.90;;;2.03;;
60873;SDS011;46715;40.642;-7.920;2024-01-27T02:05:12;3.10;;;2.22;;
60873;SDS011;46715;40.642;-7.920;2024-01-27T02:07:13;4.05;;;2.10;;
60873;SDS011;46715;40.642;-7.920;2024-01-27T02:09:14;3.53;;;2.00;;
60873;SDS011;46715;40.642;-7.920;2024-01-27T02:11:15;3.07;;;2.03;;
60873;SDS011;46715;40.642;-7.920;2024-01-27T02:15:21;2.88;;;2.00;;
60873;SDS011;46715;40.642;-7.920;2024-01-27T02:17:22;2.80;;;1.80;;
60873;SDS011;46715;40.642;-7.920;2024-01-27T02:19:23;3.77;;;2.17;;
60873;SDS011;46715;40.642;-7.920;2024-01-27T02:21:24;2.35;;;1.92;;
60873;SDS011;46715;40.642;-7.920;2024-01-27T02:23:25;3.67;;;2.07;;
60873;SDS011;46715;40.642;-7.920;2024-01-27T02:25:25;3.20;;;1.90;;
60873;SDS011;46715;40.642;-7.920;2024-01-27T02:27:26;3.77;;;2.23;;
60873;SDS011;46715;40.642;-7.920;2024-01-27T02:29:27;3.83;;;2.10;;
60873;SDS011;46715;40.642;-7.920;2024-01-27T02:31:28;2.53;;;1.90;;
60873;SDS011;46715;40.642;-7.920;2024-01-27T02:33:29;3.40;;;2.25;;
60873;SDS011;46715;40.642;-7.920;2024-01-27T02:35:30;2.60;;;1.90;;
60873;SDS011;46715;40.642;-7.920;2024-01-27T02:37:30;3.00;;;2.10;;
60873;SDS011;46715;40.642;-7.920;2024-01-27T02:39:31;3.57;;;2.10;;
60873;SDS011;46715;40.642;-7.920;2024-01-27T02:41:32;4.70;;;2.10;;
60873;SDS011;46715;40.642;-7.920;2024-01-27T02:43:38;2.42;;;1.83;;
60873;SDS011;46715;40.642;-7.920;2024-01-27T02:45:39;4.25;;;2.03;;
60873;SDS011;46715;40.642;-7.920;2024-01-27T02:47:39;4.87;;;2.20;;
60873;SDS011;46715;40.642;-7.920;2024-01-27T02:49:40;3.90;;;1.80;;
60873;SDS011;46715;40.642;-7.920;2024-01-27T02:51:41;3.63;;;2.47;;
60873;SDS011;46715;40.642;-7.920;2024-01-27T02:53:42;3.83;;;2.20;;
60873;SDS011;46715;40.642;-7.920;2024-01-27T02:55:43;3.50;;;2.10;;
60873;SDS011;46715;40.642;-7.920;2024-01-27T02:57:44;2.90;;;2.10;;
60873;SDS011;46715;40.642;-7.920;2024-01-27T02:59:47;2.57;;;2.03;;
60873;SDS011;46715;40.642;-7.920;2024-01-27T03:01:49;3.25;;;2.05;;
60873;SDS011;46715;40.642;-7.920;2024-01-27T03:05:51;3.35;;;2.33;;
60873;SDS011;46715;40.642;-7.920;2024-01-27T03:07:51;4.07;;;2.00;;
60873;SDS011;46715;40.642;-7.920;2024-01-27T03:09:52;2.58;;;1.98;;
60873;SDS011;46715;40.642;-7.920;2024-01-27T03:11:53;3.20;;;1.93;;
60873;SDS011;46715;40.642;-7.920;2024-01-27T03:13:54;3.07;;;2.07;;
60873;SDS011;46715;40.642;-7.920;2024-01-27T03:15:55;3.20;;;2.10;;
60873;SDS011;46715;40.642;-7.920;2024-01-27T03:17:56;3.58;;;2.13;;
60873;SDS011;46715;40.642;-7.920;2024-01-27T03:19:57;2.85;;;2.00;;
60873;SDS011;46715;40.642;-7.920;2024-01-27T03:21:58;3.20;;;2.13;;
60873;SDS011;46715;40.642;-7.920;2024-01-27T03:23:59;2.53;;;2.00;;
60873;SDS011;46715;40.642;-7.920;2024-01-27T03:25:59;2.83;;;2.10;;
60873;SDS011;46715;40.642;-7.920;2024-01-27T03:28:02;5.13;;;1.85;;
60873;SDS011;46715;40.642;-7.920;2024-01-27T03:30:03;2.17;;;1.73;;
60873;SDS011;46715;40.642;-7.920;2024-01-27T03:32:06;3.45;;;2.35;;
60873;SDS011;46715;40.642;-7.920;2024-01-27T03:34:07;3.15;;;2.28;;
60873;SDS011;46715;40.642;-7.920;2024-01-27T03:36:11;2.40;;;1.60;;
60873;SDS011;46715;40.642;-7.920;2024-01-27T03:38:13;3.60;;;1.92;;
60873;SDS011;46715;40.642;-7.920;2024-01-27T03:40:13;3.47;;;2.07;;
60873;SDS011;46715;40.642;-7.920;2024-01-27T03:42:14;3.17;;;2.10;;
60873;SDS011;46715;40.642;-7.920;2024-01-27T03:44:15;2.87;;;2.00;;
60873;SDS011;46715;40.642;-7.920;2024-01-27T03:46:16;2.70;;;1.90;;
60873;SDS011;46715;40.642;-7.920;2024-01-27T03:48:16;2.73;;;2.20;;
60873;SDS011;46715;40.642;-7.920;2024-01-27T03:50:21;2.97;;;2.00;;
60873;SDS011;46715;40.642;-7.920;2024-01-27T03:52:21;3.93;;;2.40;;
60873;SDS011;46715;40.642;-7.920;2024-01-27T03:54:22;3.07;;;2.33;;
60873;SDS011;46715;40.642;-7.920;2024-01-27T03:56:23;3.70;;;2.50;;
60873;SDS011;46715;40.642;-7.920;2024-01-27T03:58:24;3.63;;;2.00;;
60873;SDS011;46715;40.642;-7.920;2024-01-27T04:00:24;3.13;;;2.10;;
60873;SDS011;46715;40.642;-7.920;2024-01-27T04:02:26;2.67;;;1.88;;
60873;SDS011;46715;40.642;-7.920;2024-01-27T04:04:27;4.07;;;2.73;;
60873;SDS011;46715;40.642;-7.920;2024-01-27T04:06:28;2.90;;;2.00;;
60873;SDS011;46715;40.642;-7.920;2024-01-27T04:08:29;2.80;;;2.13;;
60873;SDS011;46715;40.642;-7.920;2024-01-27T04:10:31;3.15;;;2.20;;
60873;SDS011;46715;40.642;-7.920;2024-01-27T04:12:31;3.63;;;2.40;;
60873;SDS011;46715;40.642;-7.920;2024-01-27T04:14:32;4.13;;;2.10;;
60873;SDS011;46715;40.642;-7.920;2024-01-27T04:16:33;2.47;;;2.13;;
60873;SDS011;46715;40.642;-7.920;2024-01-27T04:18:34;3.37;;;2.20;;
60873;SDS011;46715;40.642;-7.920;2024-01-27T04:20:35;2.83;;;1.93;;
60873;SDS011;46715;40.642;-7.920;2024-01-27T04:22:35;4.17;;;2.87;;
60873;SDS011;46715;40.642;-7.920;2024-01-27T04:24:36;3.57;;;2.47;;
60873;SDS011;46715;40.642;-7.920;2024-01-27T04:26:37;2.93;;;2.00;;
60873;SDS011;46715;40.642;-7.920;2024-01-27T04:28:38;3.47;;;2.60;;
60873;SDS011;46715;40.642;-7.920;2024-01-27T04:30:39;3.08;;;2.40;;
60873;SDS011;46715;40.642;-7.920;2024-01-27T04:32:40;2.45;;;2.10;;
60873;SDS011;46715;40.642;-7.920;2024-01-27T04:34:41;3.70;;;2.50;;
60873;SDS011;46715;40.642;-7.920;2024-01-27T04:36:41;4.27;;;2.70;;
60873;SDS011;46715;40.642;-7.920;2024-01-27T04:38:43;4.83;;;2.27;;
60873;SDS011;46715;40.642;-7.920;2024-01-27T04:40:44;4.38;;;2.83;;
60873;SDS011;46715;40.642;-7.920;2024-01-27T04:42:45;4.45;;;2.67;;
60873;SDS011;46715;40.642;-7.920;2024-01-27T04:44:46;3.07;;;2.33;;
60873;SDS011;46715;40.642;-7.920;2024-01-27T04:46:47;2.70;;;2.17;;
60873;SDS011;46715;40.642;-7.920;2024-01-27T04:48:48;3.97;;;2.40;;
60873;SDS011;46715;40.642;-7.920;2024-01-27T04:50:49;4.23;;;2.90;;
60873;SDS011;46715;40.642;-7.920;2024-01-27T04:54:51;4.00;;;2.83;;
60873;SDS011;46715;40.642;-7.920;2024-01-27T04:56:52;3.77;;;2.83;;
60873;SDS011;46715;40.642;-7.920;2024-01-27T04:58:53;4.53;;;2.50;;
60873;SDS011;46715;40.642;-7.920;2024-01-27T05:00:53;2.87;;;2.20;;
60873;SDS011;46715;40.642;-7.920;2024-01-27T05:02:54;4.10;;;2.33;;
60873;SDS011;46715;40.642;-7.920;2024-01-27T05:04:55;3.40;;;2.60;;
60873;SDS011;46715;40.642;-7.920;2024-01-27T05:07:00;3.28;;;2.47;;
60873;SDS011;46715;40.642;-7.920;2024-01-27T05:09:01;3.30;;;2.53;;
60873;SDS011;46715;40.642;-7.920;2024-01-27T05:11:01;4.77;;;2.97;;
60873;SDS011;46715;40.642;-7.920;2024-01-27T05:13:02;4.20;;;3.03;;
60873;SDS011;46715;40.642;-7.920;2024-01-27T05:15:03;4.22;;;2.92;;
60873;SDS011;46715;40.642;-7.920;2024-01-27T05:17:05;3.70;;;2.83;;
60873;SDS011;46715;40.642;-7.920;2024-01-27T05:19:05;2.43;;;2.23;;
60873;SDS011;46715;40.642;-7.920;2024-01-27T05:21:06;3.70;;;3.00;;
60873;SDS011;46715;40.642;-7.920;2024-01-27T05:23:07;3.90;;;2.60;;
60873;SDS011;46715;40.642;-7.920;2024-01-27T05:25:08;6.43;;;2.90;;
60873;SDS011;46715;40.642;-7.920;2024-01-27T05:29:10;4.07;;;2.50;;
60873;SDS011;46715;40.642;-7.920;2024-01-27T05:31:11;3.33;;;2.50;;
60873;SDS011;46715;40.642;-7.920;2024-01-27T05:33:12;3.73;;;2.60;;
60873;SDS011;46715;40.642;-7.920;2024-01-27T05:35:13;3.73;;;2.63;;
60873;SDS011;46715;40.642;-7.920;2024-01-27T05:37:13;3.63;;;2.50;;
60873;SDS011;46715;40.642;-7.920;2024-01-27T05:39:14;2.60;;;2.00;;
60873;SDS011;46715;40.642;-7.920;2024-01-27T05:41:15;3.80;;;2.77;;
60873;SDS011;46715;40.642;-7.920;2024-01-27T05:43:16;3.27;;;2.20;;
60873;SDS011;46715;40.642;-7.920;2024-01-27T05:45:17;2.97;;;2.07;;
60873;SDS011;46715;40.642;-7.920;2024-01-27T05:47:18;4.22;;;2.28;;
60873;SDS011;46715;40.642;-7.920;2024-01-27T05:49:19;3.03;;;2.07;;
60873;SDS011;46715;40.642;-7.920;2024-01-27T05:51:20;3.10;;;2.43;;
60873;SDS011;46715;40.642;-7.920;2024-01-27T05:53:22;2.65;;;2.17;;
60873;SDS011;46715;40.642;-7.920;2024-01-27T05:55:23;2.90;;;2.30;;
60873;SDS011;46715;40.642;-7.920;2024-01-27T05:57:24;4.30;;;2.10;;
60873;SDS011;46715;40.642;-7.920;2024-01-27T05:59:25;2.73;;;2.00;;
60873;SDS011;46715;40.642;-7.920;2024-01-27T06:01:25;4.17;;;2.17;;
60873;SDS011;46715;40.642;-7.920;2024-01-27T06:03:26;2.77;;;2.50;;
60873;SDS011;46715;40.642;-7.920;2024-01-27T06:05:27;3.00;;;2.23;;
60873;SDS011;46715;40.642;-7.920;2024-01-27T06:07:31;3.55;;;2.03;;
60873;SDS011;46715;40.642;-7.920;2024-01-27T06:09:32;2.93;;;2.33;;
60873;SDS011;46715;40.642;-7.920;2024-01-27T06:11:33;3.10;;;2.67;;
60873;SDS011;46715;40.642;-7.920;2024-01-27T06:13:34;3.33;;;2.30;;
60873;SDS011;46715;40.642;-7.920;2024-01-27T06:15:35;4.00;;;2.30;;
60873;SDS011;46715;40.642;-7.920;2024-01-27T06:17:35;2.80;;;2.17;;
60873;SDS011;46715;40.642;-7.920;2024-01-27T06:19:36;4.30;;;2.53;;
60873;SDS011;46715;40.642;-7.920;2024-01-27T06:21:37;4.13;;;2.45;;
60873;SDS011;46715;40.642;-7.920;2024-01-27T06:23:38;4.80;;;2.20;;
60873;SDS011;46715;40.642;-7.920;2024-01-27T06:25:39;2.57;;;2.10;;
60873;SDS011;46715;40.642;-7.920;2024-01-27T06:27:40;2.67;;;2.10;;
60873;SDS011;46715;40.642;-7.920;2024-01-27T06:29:43;5.75;;;2.30;;
60873;SDS011;46715;40.642;-7.920;2024-01-27T06:31:44;4.30;;;2.00;;
60873;SDS011;46715;40.642;-7.920;2024-01-27T06:33:45;3.13;;;2.13;;
60873;SDS011;46715;40.642;-7.920;2024-01-27T06:35:46;3.00;;;2.03;;
60873;SDS011;46715;40.642;-7.920;2024-01-27T06:37:46;2.43;;;2.00;;
60873;SDS011;46715;40.642;-7.920;2024-01-27T06:39:47;3.50;;;2.33;;
60873;SDS011;46715;40.642;-7.920;2024-01-27T06:41:48;3.13;;;1.93;;
60873;SDS011;46715;40.642;-7.920;2024-01-27T06:43:49;3.03;;;2.33;;
60873;SDS011;46715;40.642;-7.920;2024-01-27T06:45:49;2.57;;;1.70;;
60873;SDS011;46715;40.642;-7.920;2024-01-27T06:47:50;2.93;;;2.53;;
60873;SDS011;46715;40.642;-7.920;2024-01-27T06:49:51;3.57;;;2.07;;
60873;SDS011;46715;40.642;-7.920;2024-01-27T06:51:52;3.10;;;2.13;;
60873;SDS011;46715;40.642;-7.920;2024-01-27T06:53:52;2.23;;;1.97;;
60873;SDS011;46715;40.642;-7.920;2024-01-27T06:55:53;2.93;;;2.20;;
60873;SDS011;46715;40.642;-7.920;2024-01-27T06:57:54;3.13;;;2.17;;
60873;SDS011;46715;40.642;-7.920;2024-01-27T06:59:55;3.47;;;2.10;;
60873;SDS011;46715;40.642;-7.920;2024-01-27T07:01:58;3.63;;;2.42;;
60873;SDS011;46715;40.642;-7.920;2024-01-27T07:03:59;3.13;;;2.20;;
60873;SDS011;46715;40.642;-7.920;2024-01-27T07:06:00;3.70;;;2.60;;
60873;SDS011;46715;40.642;-7.920;2024-01-27T07:08:01;2.97;;;2.13;;
60873;SDS011;46715;40.642;-7.920;2024-01-27T07:10:02;2.97;;;1.80;;
60873;SDS011;46715;40.642;-7.920;2024-01-27T07:12:03;3.20;;;2.17;;
60873;SDS011;46715;40.642;-7.920;2024-01-27T07:16:07;3.85;;;2.78;;
60873;SDS011;46715;40.642;-7.920;2024-01-27T07:18:07;3.97;;;2.57;;
60873;SDS011;46715;40.642;-7.920;2024-01-27T07:20:09;3.88;;;2.63;;
60873;SDS011;46715;40.642;-7.920;2024-01-27T07:22:10;3.50;;;2.28;;
60873;SDS011;46715;40.642;-7.920;2024-01-27T07:24:15;4.93;;;2.75;;
60873;SDS011;46715;40.642;-7.920;2024-01-27T07:26:16;4.03;;;2.80;;
60873;SDS011;46715;40.642;-7.920;2024-01-27T07:28:17;5.47;;;2.50;;
60873;SDS011;46715;40.642;-7.920;2024-01-27T07:30:18;4.20;;;2.50;;
60873;SDS011;46715;40.642;-7.920;2024-01-27T07:32:19;3.10;;;2.33;;
60873;SDS011;46715;40.642;-7.920;2024-01-27T07:34:21;3.78;;;1.92;;
60873;SDS011;46715;40.642;-7.920;2024-01-27T07:36:22;3.80;;;2.93;;
60873;SDS011;46715;40.642;-7.920;2024-01-27T07:38:23;3.27;;;2.50;;
60873;SDS011;46715;40.642;-7.920;2024-01-27T07:40:23;6.20;;;2.60;;
60873;SDS011;46715;40.642;-7.920;2024-01-27T07:42:24;3.00;;;2.37;;
60873;SDS011;46715;40.642;-7.920;2024-01-27T07:44:25;3.30;;;2.23;;
60873;SDS011;46715;40.642;-7.920;2024-01-27T07:46:26;2.90;;;2.40;;
60873;SDS011;46715;40.642;-7.920;2024-01-27T07:48:26;2.93;;;2.43;;
60873;SDS011;46715;40.642;-7.920;2024-01-27T07:50:27;9.07;;;2.60;;
60873;SDS011;46715;40.642;-7.920;2024-01-27T07:52:28;3.90;;;2.40;;
60873;SDS011;46715;40.642;-7.920;2024-01-27T07:54:29;3.50;;;2.33;;
60873;SDS011;46715;40.642;-7.920;2024-01-27T07:56:29;3.90;;;2.03;;
60873;SDS011;46715;40.642;-7.920;2024-01-27T07:58:30;4.82;;;2.28;;
60873;SDS011;46715;40.642;-7.920;2024-01-27T08:00:31;3.57;;;2.60;;
60873;SDS011;46715;40.642;-7.920;2024-01-27T08:02:32;4.97;;;2.53;;
60873;SDS011;46715;40.642;-7.920;2024-01-27T08:04:33;3.23;;;2.50;;
60873;SDS011;46715;40.642;-7.920;2024-01-27T08:06:34;3.23;;;2.43;;
60873;SDS011;46715;40.642;-7.920;2024-01-27T08:08:46;7.10;;;6.18;;
60873;SDS011;46715;40.642;-7.920;2024-01-27T08:12:48;3.67;;;2.97;;
60873;SDS011;46715;40.642;-7.920;2024-01-27T08:14:48;4.13;;;2.43;;
60873;SDS011;46715;40.642;-7.920;2024-01-27T08:16:49;4.63;;;2.63;;
60873;SDS011;46715;40.642;-7.920;2024-01-27T08:18:50;3.07;;;2.40;;
60873;SDS011;46715;40.642;-7.920;2024-01-27T08:20:51;3.00;;;2.45;;
60873;SDS011;46715;40.642;-7.920;2024-01-27T08:22:51;3.50;;;2.80;;
60873;SDS011;46715;40.642;-7.920;2024-01-27T08:24:56;3.67;;;2.17;;
60873;SDS011;46715;40.642;-7.920;2024-01-27T08:26:58;3.10;;;2.37;;
60873;SDS011;46715;40.642;-7.920;2024-01-27T08:28:59;2.90;;;1.90;;
60873;SDS011;46715;40.642;-7.920;2024-01-27T08:30:59;4.50;;;2.10;;
60873;SDS011;46715;40.642;-7.920;2024-01-27T08:33:02;2.70;;;2.00;;
60873;SDS011;46715;40.642;-7.920;2024-01-27T08:35:02;3.03;;;2.20;;
60873;SDS011;46715;40.642;-7.920;2024-01-27T08:37:13;2.80;;;2.30;;
60873;SDS011;46715;40.642;-7.920;2024-01-27T08:39:16;3.60;;;2.40;;
60873;SDS011;46715;40.642;-7.920;2024-01-27T08:41:17;4.10;;;2.30;;
60873;SDS011;46715;40.642;-7.920;2024-01-27T08:43:18;3.33;;;2.42;;
60873;SDS011;46715;40.642;-7.920;2024-01-27T08:45:19;2.50;;;1.80;;
60873;SDS011;46715;40.642;-7.920;2024-01-27T08:47:20;2.63;;;2.30;;
60873;SDS011;46715;40.642;-7.920;2024-01-27T08:49:22;3.08;;;2.22;;
60873;SDS011;46715;40.642;-7.920;2024-01-27T08:51:23;3.07;;;2.20;;
60873;SDS011;46715;40.642;-7.920;2024-01-27T08:53:23;3.27;;;2.60;;
60873;SDS011;46715;40.642;-7.920;2024-01-27T08:55:24;4.53;;;2.00;;
60873;SDS011;46715;40.642;-7.920;2024-01-27T08:57:25;5.73;;;2.30;;
60873;SDS011;46715;40.642;-7.920;2024-01-27T08:59:26;4.13;;;2.20;;
60873;SDS011;46715;40.642;-7.920;2024-01-27T09:01:26;3.70;;;2.37;;
60873;SDS011;46715;40.642;-7.920;2024-01-27T09:03:27;4.03;;;3.13;;
60873;SDS011;46715;40.642;-7.920;2024-01-27T09:05:28;5.13;;;3.30;;
60873;SDS011;46715;40.642;-7.920;2024-01-27T09:07:29;6.73;;;4.10;;
60873;SDS011;46715;40.642;-7.920;2024-01-27T09:09:29;7.07;;;4.30;;
60873;SDS011;46715;40.642;-7.920;2024-01-27T09:11:30;8.27;;;5.03;;
60873;SDS011;46715;40.642;-7.920;2024-01-27T09:13:32;11.32;;;7.50;;
60873;SDS011;46715;40.642;-7.920;2024-01-27T09:15:33;13.83;;;8.97;;
60873;SDS011;46715;40.642;-7.920;2024-01-27T09:17:34;17.55;;;10.85;;
60873;SDS011;46715;40.642;-7.920;2024-01-27T09:19:35;17.40;;;10.70;;
60873;SDS011;46715;40.642;-7.920;2024-01-27T09:21:36;21.88;;;11.32;;
60873;SDS011;46715;40.642;-7.920;2024-01-27T09:23:37;20.40;;;11.68;;
60873;SDS011;46715;40.642;-7.920;2024-01-27T09:25:42;19.45;;;11.75;;
60873;SDS011;46715;40.642;-7.920;2024-01-27T09:27:43;17.97;;;11.20;;
60873;SDS011;46715;40.642;-7.920;2024-01-27T09:29:43;18.70;;;11.18;;
60873;SDS011;46715;40.642;-7.920;2024-01-27T09:31:44;17.60;;;10.63;;
60873;SDS011;46715;40.642;-7.920;2024-01-27T09:33:45;13.13;;;8.57;;
60873;SDS011;46715;40.642;-7.920;2024-01-27T09:35:46;12.50;;;7.03;;
60873;SDS011;46715;40.642;-7.920;2024-01-27T09:37:47;8.87;;;5.40;;
60873;SDS011;46715;40.642;-7.920;2024-01-27T09:39:47;9.73;;;5.97;;
60873;SDS011;46715;40.642;-7.920;2024-01-27T09:41:48;8.07;;;5.38;;
60873;SDS011;46715;40.642;-7.920;2024-01-27T09:43:50;7.70;;;4.53;;
60873;SDS011;46715;40.642;-7.920;2024-01-27T09:45:54;5.45;;;3.50;;
60873;SDS011;46715;40.642;-7.920;2024-01-27T09:47:56;7.45;;;3.90;;
60873;SDS011;46715;40.642;-7.920;2024-01-27T09:50:00;6.43;;;4.32;;
60873;SDS011;46715;40.642;-7.920;2024-01-27T09:52:01;6.63;;;4.57;;
60873;SDS011;46715;40.642;-7.920;2024-01-27T09:54:02;7.10;;;4.13;;
60873;SDS011;46715;40.642;-7.920;2024-01-27T09:56:03;8.90;;;4.73;;
60873;SDS011;46715;40.642;-7.920;2024-01-27T09:58:04;7.72;;;4.22;;
60873;SDS011;46715;40.642;-7.920;2024-01-27T10:00:06;7.35;;;4.85;;
60873;SDS011;46715;40.642;-7.920;2024-01-27T10:02:12;10.98;;;5.45;;
60873;SDS011;46715;40.642;-7.920;2024-01-27T10:04:15;9.48;;;5.93;;
60873;SDS011;46715;40.642;-7.920;2024-01-27T10:06:16;10.05;;;5.72;;
60873;SDS011;46715;40.642;-7.920;2024-01-27T10:08:18;11.80;;;6.53;;
60873;SDS011;46715;40.642;-7.920;2024-01-27T10:10:19;13.38;;;6.97;;
60873;SDS011;46715;40.642;-7.920;2024-01-27T10:12:20;11.48;;;6.30;;
60873;SDS011;46715;40.642;-7.920;2024-01-27T10:14:23;12.57;;;6.43;;
60873;SDS011;46715;40.642;-7.920;2024-01-27T10:16:23;9.27;;;5.90;;
60873;SDS011;46715;40.642;-7.920;2024-01-27T10:18:24;8.43;;;5.00;;
60873;SDS011;46715;40.642;-7.920;2024-01-27T10:20:28;8.57;;;5.10;;
60873;SDS011;46715;40.642;-7.920;2024-01-27T10:22:36;11.07;;;5.97;;
60873;SDS011;46715;40.642;-7.920;2024-01-27T10:24:40;7.28;;;5.10;;
60873;SDS011;46715;40.642;-7.920;2024-01-27T10:26:45;8.32;;;5.25;;
60873;SDS011;46715;40.642;-7.920;2024-01-27T10:28:54;12.38;;;6.18;;
60873;SDS011;46715;40.642;-7.920;2024-01-27T10:31:07;10.88;;;6.65;;
60873;SDS011;46715;40.642;-7.920;2024-01-27T10:33:11;11.05;;;6.72;;
60873;SDS011;46715;40.642;-7.920;2024-01-27T10:35:15;11.85;;;7.97;;
60873;SDS011;46715;40.642;-7.920;2024-01-27T10:37:16;14.20;;;9.50;;
60873;SDS011;46715;40.642;-7.920;2024-01-27T10:39:24;16.38;;;9.65;;
60873;SDS011;46715;40.642;-7.920;2024-01-27T10:41:24;16.07;;;10.53;;
60873;SDS011;46715;40.642;-7.920;2024-01-27T10:43:26;18.70;;;10.90;;
60873;SDS011;46715;40.642;-7.920;2024-01-27T10:45:38;22.75;;;11.45;;
60873;SDS011;46715;40.642;-7.920;2024-01-27T10:47:40;19.40;;;11.35;;
60873;SDS011;46715;40.642;-7.920;2024-01-27T10:49:43;18.85;;;12.02;;
60873;SDS011;46715;40.642;-7.920;2024-01-27T10:53:55;17.35;;;11.82;;
60873;SDS011;46715;40.642;-7.920;2024-01-27T10:56:04;16.48;;;11.25;;
60873;SDS011;46715;40.642;-7.920;2024-01-27T10:58:09;19.35;;;11.55;;
60873;SDS011;46715;40.642;-7.920;2024-01-27T11:00:12;18.08;;;11.18;;
60873;SDS011;46715;40.642;-7.920;2024-01-27T11:02:15;21.00;;;11.70;;
60873;SDS011;46715;40.642;-7.920;2024-01-27T11:04:17;19.00;;;10.70;;
60873;SDS011;46715;40.642;-7.920;2024-01-27T11:06:20;13.15;;;9.68;;
60873;SDS011;46715;40.642;-7.920;2024-01-27T11:08:23;15.43;;;9.05;;
60873;SDS011;46715;40.642;-7.920;2024-01-27T11:10:28;15.60;;;9.95;;
60873;SDS011;46715;40.642;-7.920;2024-01-27T11:12:41;15.43;;;9.95;;
60873;SDS011;46715;40.642;-7.920;2024-01-27T11:14:42;14.82;;;9.00;;
60873;SDS011;46715;40.642;-7.920;2024-01-27T11:16:43;14.50;;;9.57;;
60873;SDS011;46715;40.642;-7.920;2024-01-27T11:18:47;15.40;;;9.82;;
60873;SDS011;46715;40.642;-7.920;2024-01-27T11:20:48;16.58;;;11.25;;
60873;SDS011;46715;40.642;-7.920;2024-01-27T11:22:52;14.27;;;10.48;;
60873;SDS011;46715;40.642;-7.920;2024-01-27T11:27:09;11.15;;;7.53;;
60873;SDS011;46715;40.642;-7.920;2024-01-27T11:29:12;13.73;;;9.10;;
60873;SDS011;46715;40.642;-7.920;2024-01-27T11:31:20;13.80;;;9.38;;
60873;SDS011;46715;40.642;-7.920;2024-01-27T11:33:20;11.05;;;6.93;;
60873;SDS011;46715;40.642;-7.920;2024-01-27T11:35:25;11.38;;;7.28;;
60873;SDS011;46715;40.642;-7.920;2024-01-27T11:37:25;11.60;;;7.85;;
60873;SDS011;46715;40.642;-7.920;2024-01-27T11:39:31;13.18;;;7.43;;
60873;SDS011;46715;40.642;-7.920;2024-01-27T11:41:32;15.20;;;8.80;;
60873;SDS011;46715;40.642;-7.920;2024-01-27T11:43:33;10.20;;;6.60;;
60873;SDS011;46715;40.642;-7.920;2024-01-27T11:45:34;9.40;;;6.03;;
60873;SDS011;46715;40.642;-7.920;2024-01-27T11:47:35;8.27;;;6.20;;
60873;SDS011;46715;40.642;-7.920;2024-01-27T11:49:36;10.95;;;7.70;;
60873;SDS011;46715;40.642;-7.920;2024-01-27T11:51:37;11.30;;;7.22;;
60873;SDS011;46715;40.642;-7.920;2024-01-27T11:53:38;10.90;;;7.40;;
60873;SDS011;46715;40.642;-7.920;2024-01-27T11:55:39;14.23;;;9.73;;
60873;SDS011;46715;40.642;-7.920;2024-01-27T11:57:39;13.73;;;9.27;;
60873;SDS011;46715;40.642;-7.920;2024-01-27T11:59:40;13.17;;;8.80;;
60873;SDS011;46715;40.642;-7.920;2024-01-27T12:01:41;10.77;;;6.78;;
60873;SDS011;46715;40.642;-7.920;2024-01-27T12:03:42;9.25;;;6.32;;
60873;SDS011;46715;40.642;-7.920;2024-01-27T12:05:43;12.93;;;7.45;;
60873;SDS011;46715;40.642;-7.920;2024-01-27T12:07:45;13.18;;;7.75;;
60873;SDS011;46715;40.642;-7.920;2024-01-27T12:09:45;10.48;;;7.05;;
60873;SDS011;46715;40.642;-7.920;2024-01-27T12:11:46;10.70;;;7.25;;
60873;SDS011;46715;40.642;-7.920;2024-01-27T12:13:51;12.18;;;7.50;;
60873;SDS011;46715;40.642;-7.920;2024-01-27T12:15:53;13.35;;;7.15;;